Weather at Erdemir Heliport

Public forecast

Using degrees Celsius for public forecast. Weather courtesy of forecast.io.

Closest aviation weather report (METAR) to Erdemir Heliport

Report is more than 6 hours old.

Closest report is Zonguldak Çaycuma Airport, 34.2 nm (63.4 km) ENE.

2022/11/14 13:50 (retrieved 2 years ago)

LTAS 141350Z 34004KT 300V360 9999 SCT035 BKN100 14/07 Q1024

Closest aviation forecast (TAF) to Erdemir Heliport

Forecast is more than 12 hours old.

Closest forecast is Istanbul Sabiha Gökçen International Airport, 97.4 nm (180.3 km) WSW.

2023/02/22 18:03 (retrieved 1 year ago)

TAF LTFJ 221640Z 2218/2318 VRB02KT CAVOK BECMG 2303/2306 SCT035 BKN080 BECMG 2308/2311 04012KT BECMG 2312/2315 CAVOK PROB30 TEMPO 2315/2318 05015G25KT